x

Cape Cleare - 17 Nm South Of Montague Is, Ak (46076) Wave Buoy

6:50pm - Tue 30th Aug 2016 All times are AKDT. -8 hours from GMT.

  • Sig Wave height 2.3ft
  • Swell Direction
  • Peak Period 14s
  • Average Period 8s
  • Wind
    4mph
  • Sea Temp 61°f
  • Air Temp 62°f
  • Sea Pressure 1016.5mb
  • Cape Cleare - 17 Nm South Of Montague Is,  Ak
  • Cape Cleare - 17 Nm South Of Montague Is,  Ak

More Historic Weather Station data

Upgrade to MSW Pro to gain access to the past 30 days of data for over 8000 Wavebouys and Weather Stations around the globe.

Join Pro

Comparision Forecast

View Surf forecast
   
Tue 08/30 6:50pm 2.5ft 14s 8s 4
mph
1016.5mb 61f 62f
5:50pm 2.5ft 13s 7s 2 4 mph 1016.5mb 61f 62f
4:50pm 2.5ft 14s 7s 2
mph
1016.4mb 60f 62f
3:50pm 2.5ft 14s 6s 4
mph
1016.3mb 60f 62f
2:50pm 2.5ft 14s 6s 4
mph
1016.2mb 60f 61f
1:50pm 2.5ft 14s 6s 7
mph
1015.9mb 59f 60f
12:50pm 2.5ft 9s 7s 4
mph
1015.8mb 60f 61f
11:50am 2.5ft 8s 8s 4 7 mph 1015.5mb 59f 61f
10:50am 2.5ft 9s 8s 2
mph
1015.4mb 59f 59f
9:50am 2.5ft 15s 8s 2
mph
1015.1mb 59f 60f
8:50am 2.5ft 9s 8s 4 7 mph 1015.1mb 59f 59f
7:50am 2.5ft 13s 7s 7
mph
1015mb 59f 59f
6:50am 2.5ft 14s 7s 11
mph
1014.8mb 59f 60f
5:50am 2.5ft 14s 6s 2 4 mph 1015mb 59f 60f
4:50am 2.5ft 15s 6s 7
mph
1015.1mb 59f 61f
3:50am 2.5ft 15s 7s 4 7 mph 1015.2mb 59f 61f
2:50am 2.5ft 14s 7s 4
mph
1015.2mb 60f 60f
1:50am 2.5ft 14s 7s 2
mph
1015.4mb 60f 60f
12:50am 2.5ft 15s 7s 4 7 mph 1015.4mb 60f 60f
Mon 08/29 11:50pm 2.5ft 14s 7s 7 9 mph 1015mb 60f 61f
10:50pm 2.5ft 14s 7s 9 11 mph 1014.6mb 60f 61f
9:50pm 2ft 9s 6s 7
mph
1014.3mb 60f 61f
8:50pm 2.5ft 14s 7s 9 11 mph 1014mb 59f 62f
7:50pm 2.5ft 14s 7s 7 9 mph 1013.5mb 60f 63f
6:50pm 2.5ft 15s 7s 9
mph
1013.4mb 60f 64f
5:50pm 2.5ft 15s 7s 7 9 mph 1013.3mb 60f 63f
4:50pm 2.5ft 14s 6s 4
mph
1013mb 60f 63f
3:50pm 2.5ft 15s 7s 7 9 mph 1012.9mb 60f 63f
2:50pm 2.5ft 15s 6s 7 9 mph 1012.8mb 60f 62f
1:50pm 2.5ft 15s  -  2 4 mph 1012.6mb 60f 61f
12:50pm 3ft 15s 6s 9 11 mph 1012.6mb 59f 61f
11:50am 2.5ft 15s 6s 9 11 mph 1012.6mb 59f 61f
10:50am 3ft 15s 8s 11 13 mph 1012.7mb 59f 62f
9:50am 3ft 10s 8s 11 13 mph 1012.8mb 59f 61f
8:50am 2.5ft 10s 7s 9 11 mph 1013.2mb 58f 61f
7:50am 3ft 15s 7s 7 9 mph 1013.3mb 58f 61f
6:50am 2.5ft 10s 8s 11 13 mph 1013.6mb 58f 62f
5:50am 3ft 9s 7s 11 13 mph 1013.7mb 58f 63f
4:50am 3ft 11s 6s 11 16 mph 1013.6mb 58f 63f
3:50am 3ft 9s 7s 11 16 mph 1013.6mb 58f 63f
2:50am 3ft 10s 8s 11 13 mph 1013.9mb 59f 62f
1:50am 3ft 10s 7s 13
mph
1013.7mb 59f 61f
12:50am 3.5ft 10s 7s 11 13 mph 1013.9mb 59f 61f
Sun 08/28 11:50pm 3ft 10s 7s 9
mph
1013.7mb 59f 61f
10:50pm 3ft 15s 7s 9 11 mph 1013.6mb 59f 61f
9:50pm 3.5ft 11s 8s 9 11 mph 1013.4mb 59f 63f
8:50pm 3.5ft 10s 8s 9
mph
1013.3mb 59f 62f
7:50pm 3.5ft 10s 8s 7
mph
1013.1mb 60f 62f
6:50pm 3.5ft 10s 8s 4
mph
1013.3mb 60f 63f
5:50pm 3.5ft 10s 8s 2 4 mph 1013.3mb 62f 62f
4:50pm 3.5ft 11s 8s  -  2 mph 1013.4mb 61f 62f
3:50pm 3.5ft 11s 8s 4
mph
1013.4mb 60f 61f
2:50pm 3.5ft 11s 7s 2 4 mph 1013.4mb 60f 61f
1:50pm 3.5ft 10s 7s 4 7 mph 1013.3mb 59f 60f
12:50pm 3.5ft 11s 7s 9 13 mph 1013mb 58f 61f
11:50am 4ft 11s 7s 4 7 mph 1012.7mb 58f 60f
10:50am 3.5ft 11s 6s 7 9 mph 1012.5mb 58f 60f
9:50am 4ft 11s 7s 11 13 mph 1012.3mb 58f 60f
8:50am 4ft 11s 7s 11 13 mph 1012.3mb 58f 61f
7:50am 4ft 11s 7s 4 7 mph 1012.3mb 58f 62f
6:50am 3.5ft 10s 7s 7
mph
1012.2mb 58f 62f
5:50am 3.5ft 7s 7s 2 4 mph 1012.4mb 58f 61f
4:50am 3.5ft 8s 7s 7
mph
1012.5mb 59f 61f
3:50am 3ft 7s 7s 9
mph
1012.3mb 59f 61f
2:50am 3ft 7s 7s 7 9 mph 1012.4mb 59f 61f
1:50am 3ft 7s 6s 7 9 mph 1012.7mb 59f 60f
Sat 08/27 11:50pm 2.5ft 13s 6s 11
mph
1012.9mb 58f 61f
10:50pm 2.5ft 8s 6s 11 13 mph 1013mb 58f 62f
9:50pm 3ft 8s 6s 7 9 mph 1013.3mb 58f 62f
8:50pm 3ft 8s 6s 11
mph
1013.3mb 59f 61f
6:50pm 2.5ft 8s 6s 7 9 mph 1013.8mb 59f 63f
5:50pm 2.5ft 7s 6s 7
mph
1014.3mb 60f 62f
4:50pm 3ft 7s 6s 4 7 mph 1014.6mb 60f 62f
3:50pm 3.5ft 8s 6s 2 4 mph 1014.7mb 60f 61f
2:50pm 3ft 7s 6s 2 4 mph 1014.9mb 60f 62f
1:50pm 3ft 8s 6s 4
mph
1014.8mb 60f 61f
12:50pm 3ft 7s 6s 4 7 mph 1014.9mb 60f 60f
11:50am 3ft 7s 6s 2
mph
1014.9mb 59f 60f
10:50am 3ft 7s 6s 2 4 mph 1014.8mb 58f 60f
9:50am 3ft 7s 6s 2
mph
1014.7mb 58f 61f
8:50am 3.5ft 7s 6s  -  2 mph 1014.8mb 58f 60f
7:50am 3.5ft 8s 6s 2 4 mph 1015.1mb 58f 60f
6:50am 3.5ft 7s 6s 7
mph
1014.9mb 58f 60f
5:50am 3.5ft 8s 6s 9
mph
1014.9mb 58f 60f
4:50am 3.5ft 7s 6s 7 9 mph 1015.2mb 58f 60f